createdAt,value
2023-01-27T00:00:16.131Z,0.00
2023-01-27T00:01:16.107Z,0.00
2023-01-27T00:02:16.113Z,0.00
2023-01-27T00:03:16.142Z,0.00
2023-01-27T00:04:16.083Z,0.00
2023-01-27T00:05:16.102Z,0.00
2023-01-27T00:06:16.067Z,0.00
2023-01-27T00:07:16.056Z,0.00
2023-01-27T00:08:16.030Z,0.00
2023-01-27T00:09:16.018Z,0.00
2023-01-27T00:10:16.008Z,0.00
2023-01-27T00:11:15.992Z,0.00
2023-01-27T00:12:16.021Z,0.00
2023-01-27T00:13:15.971Z,0.00
2023-01-27T00:14:15.985Z,0.00
2023-01-27T00:15:15.969Z,0.00
2023-01-27T00:16:16.008Z,0.00
2023-01-27T00:17:15.928Z,0.00
2023-01-27T00:18:15.931Z,0.00
2023-01-27T00:19:15.908Z,0.00
2023-01-27T00:20:15.898Z,0.00
2023-01-27T00:21:15.909Z,0.00
2023-01-27T00:22:15.899Z,0.00
2023-01-27T00:23:15.890Z,0.00
2023-01-27T00:24:15.974Z,0.00
2023-01-27T00:25:15.859Z,0.00
2023-01-27T00:26:15.845Z,0.00
2023-01-27T00:27:15.821Z,0.00
2023-01-27T00:28:15.809Z,0.00
2023-01-27T00:29:15.822Z,0.00
2023-01-27T00:30:15.810Z,0.00
2023-01-27T00:31:15.876Z,0.00
2023-01-27T00:32:15.767Z,0.00
2023-01-27T00:33:15.780Z,0.00
2023-01-27T00:34:15.781Z,0.00
2023-01-27T00:35:15.748Z,0.00
2023-01-27T00:36:15.724Z,0.00
2023-01-27T00:37:15.825Z,0.00
2023-01-27T00:38:15.703Z,0.00
2023-01-27T00:39:15.703Z,0.00
2023-01-27T00:40:15.677Z,0.00
2023-01-27T00:41:15.675Z,0.00
2023-01-27T00:42:15.657Z,0.00
2023-01-27T00:43:15.644Z,0.00
2023-01-27T00:44:15.646Z,0.00
2023-01-27T00:46:31.613Z,0.00
2023-01-27T00:47:31.522Z,0.00
2023-01-27T00:48:31.515Z,0.00
2023-01-27T00:49:31.536Z,0.00
2023-01-27T00:50:31.522Z,0.00
2023-01-27T00:51:31.509Z,0.00
2023-01-27T00:52:31.488Z,0.00
2023-01-27T00:53:31.475Z,0.00
2023-01-27T00:54:31.462Z,0.00
2023-01-27T00:55:31.439Z,0.00
2023-01-27T00:56:31.439Z,0.00
2023-01-27T00:57:31.414Z,0.00
2023-01-27T00:58:31.400Z,0.00
2023-01-27T00:59:31.399Z,0.00
2023-01-27T01:00:31.405Z,0.00
2023-01-27T01:01:31.422Z,0.00
2023-01-27T01:02:31.448Z,0.00
2023-01-27T01:03:31.368Z,0.00
2023-01-27T01:04:31.336Z,0.00
2023-01-27T01:05:31.353Z,0.00
2023-01-27T01:06:31.329Z,0.00
2023-01-27T01:07:31.326Z,0.00
2023-01-27T01:08:31.327Z,0.00
2023-01-27T01:09:31.308Z,0.00
2023-01-27T01:10:31.305Z,0.00
2023-01-27T01:11:31.285Z,0.00
2023-01-27T01:12:31.248Z,0.00
2023-01-27T01:13:31.240Z,0.00
2023-01-27T01:14:31.227Z,0.00
2023-01-27T01:15:31.225Z,0.00
2023-01-27T01:16:31.225Z,0.00
2023-01-27T01:17:31.196Z,0.00
2023-01-27T01:18:31.184Z,0.00
2023-01-27T01:19:31.215Z,0.00
2023-01-27T01:20:31.175Z,0.00
2023-01-27T01:21:31.167Z,0.00
2023-01-27T01:22:31.169Z,0.00
2023-01-27T01:23:31.141Z,0.00
2023-01-27T01:24:31.159Z,0.00
2023-01-27T01:25:31.231Z,0.00
2023-01-27T01:26:31.126Z,0.00
2023-01-27T01:27:31.089Z,0.00
2023-01-27T01:28:31.091Z,0.00
2023-01-27T01:29:31.088Z,0.00
2023-01-27T01:30:31.143Z,0.00
2023-01-27T01:31:31.198Z,0.00
2023-01-27T01:32:31.047Z,0.00
2023-01-27T01:33:31.022Z,0.00
2023-01-27T01:34:31.010Z,0.00
2023-01-27T01:35:31.049Z,0.00
2023-01-27T01:36:30.998Z,0.00
2023-01-27T01:37:31.000Z,0.00
2023-01-27T01:38:30.986Z,0.00
2023-01-27T01:39:30.973Z,0.00
2023-01-27T01:40:30.983Z,0.00
2023-01-27T01:41:30.969Z,0.00
2023-01-27T01:42:30.920Z,0.00
2023-01-27T01:43:30.920Z,0.00
2023-01-27T01:44:30.900Z,0.00
2023-01-27T01:45:30.891Z,0.00
2023-01-27T01:46:30.935Z,0.00
2023-01-27T01:47:30.883Z,0.00
2023-01-27T01:48:31.961Z,0.00
2023-01-27T01:49:30.847Z,0.00
2023-01-27T01:50:30.839Z,0.00
2023-01-27T01:51:30.847Z,0.00
2023-01-27T01:52:30.822Z,0.00
2023-01-27T01:53:30.823Z,0.00
2023-01-27T01:54:30.792Z,0.00
2023-01-27T01:55:30.786Z,0.00
2023-01-27T01:56:30.797Z,0.00
2023-01-27T01:57:30.817Z,0.00
2023-01-27T01:58:30.751Z,0.00
2023-01-27T01:59:30.742Z,0.00
2023-01-27T02:00:30.727Z,0.00
2023-01-27T02:01:30.816Z,0.00
2023-01-27T02:02:30.744Z,0.00
2023-01-27T02:03:30.713Z,0.00
2023-01-27T02:04:30.690Z,0.00
2023-01-27T02:05:30.677Z,0.00
2023-01-27T02:06:30.687Z,0.00
2023-01-27T02:07:30.665Z,0.00
2023-01-27T02:08:30.650Z,0.00
2023-01-27T02:09:30.663Z,0.00
2023-01-27T02:10:30.644Z,0.00
2023-01-27T02:11:30.621Z,0.00
2023-01-27T02:12:30.630Z,0.00
2023-01-27T02:13:30.604Z,0.00
2023-01-27T02:14:30.581Z,0.00
2023-01-27T02:15:30.580Z,0.00
2023-01-27T02:16:30.608Z,0.00
2023-01-27T02:17:30.564Z,0.00
2023-01-27T02:18:30.539Z,0.00
2023-01-27T02:19:30.537Z,0.00
2023-01-27T02:20:30.508Z,0.00
2023-01-27T02:21:30.497Z,0.00
2023-01-27T02:22:30.495Z,0.00
2023-01-27T02:23:30.495Z,0.00
2023-01-27T02:24:30.469Z,0.00
2023-01-27T02:25:30.468Z,0.00
2023-01-27T02:26:30.449Z,0.00
2023-01-27T02:27:30.444Z,0.00
2023-01-27T02:28:30.453Z,0.00
2023-01-27T02:29:30.414Z,0.00
2023-01-27T02:30:30.479Z,0.00
2023-01-27T02:31:30.495Z,0.00
2023-01-27T02:32:30.376Z,0.00
2023-01-27T02:33:30.375Z,0.00
2023-01-27T02:34:30.374Z,0.00
2023-01-27T02:35:30.368Z,0.00
2023-01-27T02:36:30.332Z,0.00
2023-01-27T02:37:30.334Z,0.00
2023-01-27T02:38:30.312Z,0.00
2023-01-27T02:39:30.305Z,0.00
2023-01-27T02:40:30.305Z,0.00
2023-01-27T02:41:30.326Z,0.00
2023-01-27T02:42:30.341Z,0.00
2023-01-27T02:43:30.258Z,0.00
2023-01-27T02:44:30.275Z,0.00
2023-01-27T02:45:30.256Z,0.00
2023-01-27T02:46:37.233Z,0.00
2023-01-27T02:47:30.230Z,0.00
2023-01-27T02:48:30.201Z,0.00
2023-01-27T02:49:30.191Z,0.00
2023-01-27T02:50:30.197Z,0.00
2023-01-27T02:51:30.193Z,0.00
2023-01-27T02:52:30.188Z,0.00
2023-01-27T02:53:30.149Z,0.00
2023-01-27T02:54:30.555Z,0.00
2023-01-27T02:55:30.148Z,0.00
2023-01-27T02:56:30.143Z,0.00
2023-01-27T02:57:30.106Z,0.00
2023-01-27T02:58:30.091Z,0.00
2023-01-27T02:59:30.083Z,0.00
2023-01-27T03:00:30.091Z,0.00
2023-01-27T03:01:30.168Z,0.00
2023-01-27T03:02:30.175Z,0.00
2023-01-27T03:03:30.070Z,0.00
2023-01-27T03:04:30.032Z,0.00
2023-01-27T03:05:30.029Z,0.00
2023-01-27T03:06:30.029Z,0.00
2023-01-27T03:07:30.005Z,0.00
2023-01-27T03:08:29.985Z,0.00
2023-01-27T03:09:29.991Z,0.00
2023-01-27T03:10:29.974Z,0.00
2023-01-27T03:11:29.983Z,0.00
2023-01-27T03:12:29.959Z,0.00
2023-01-27T03:13:29.947Z,0.00
2023-01-27T03:14:29.920Z,0.00
2023-01-27T03:15:29.954Z,0.00
2023-01-27T03:16:29.936Z,0.00
2023-01-27T03:17:29.890Z,0.00
2023-01-27T03:18:29.878Z,0.00
2023-01-27T03:19:29.869Z,0.00
2023-01-27T03:20:29.867Z,0.00
2023-01-27T03:21:29.856Z,0.00
2023-01-27T03:22:29.831Z,0.00
2023-01-27T03:23:29.824Z,0.00
2023-01-27T03:24:29.810Z,0.00
2023-01-27T03:25:29.800Z,0.00
2023-01-27T03:26:29.803Z,0.00
2023-01-27T03:27:29.776Z,0.00
2023-01-27T03:28:29.780Z,0.00
2023-01-27T03:29:29.761Z,0.00
2023-01-27T03:30:29.744Z,0.00
2023-01-27T03:31:29.857Z,0.00
2023-01-27T03:32:29.775Z,0.00
2023-01-27T03:33:29.738Z,0.00
2023-01-27T03:34:29.701Z,0.00
2023-01-27T03:35:29.695Z,0.00
2023-01-27T03:36:29.691Z,0.00
2023-01-27T03:37:29.672Z,0.00
2023-01-27T03:38:29.659Z,0.00
2023-01-27T03:39:29.648Z,0.00
2023-01-27T03:40:29.680Z,0.00
2023-01-27T03:41:29.628Z,0.00
2023-01-27T03:42:29.632Z,0.00
2023-01-27T03:43:29.634Z,0.00
2023-01-27T03:44:29.601Z,0.00
2023-01-27T03:45:29.594Z,0.00
2023-01-27T03:46:29.727Z,0.00
2023-01-27T03:47:29.559Z,0.00
2023-01-27T03:48:29.567Z,0.00
2023-01-27T03:49:29.557Z,0.00
2023-01-27T03:50:29.537Z,0.00
2023-01-27T03:51:29.520Z,0.00
2023-01-27T03:52:29.528Z,0.00
2023-01-27T03:53:29.521Z,0.00
2023-01-27T03:54:29.502Z,0.00
2023-01-27T03:55:29.474Z,0.00
2023-01-27T03:56:29.478Z,0.00
2023-01-27T03:57:29.456Z,0.00
2023-01-27T03:58:29.465Z,0.00
2023-01-27T03:59:29.430Z,0.00
2023-01-27T04:00:29.419Z,0.00
2023-01-27T04:01:29.448Z,0.00
2023-01-27T04:02:29.461Z,0.00
2023-01-27T04:03:29.395Z,0.00
2023-01-27T04:04:29.413Z,0.00
2023-01-27T04:05:29.395Z,0.00
2023-01-27T04:06:29.362Z,0.00
2023-01-27T04:07:29.361Z,0.00
2023-01-27T04:08:29.332Z,0.00
2023-01-27T04:09:29.346Z,0.00
2023-01-27T04:10:29.320Z,0.00
2023-01-27T04:11:31.694Z,0.00
2023-01-27T04:12:29.286Z,0.00
2023-01-27T04:13:29.284Z,0.00
2023-01-27T04:14:29.280Z,0.00
2023-01-27T04:15:29.276Z,0.00
2023-01-27T04:16:29.241Z,0.00
2023-01-27T04:17:29.249Z,0.00
2023-01-27T04:18:29.220Z,0.00
2023-01-27T04:19:29.231Z,0.00
2023-01-27T04:20:29.219Z,0.00
2023-01-27T04:21:29.199Z,0.00
2023-01-27T04:22:29.206Z,0.00
2023-01-27T04:23:29.234Z,0.00
2023-01-27T04:24:29.251Z,0.00
2023-01-27T04:25:29.180Z,0.00
2023-01-27T04:26:29.134Z,0.00
2023-01-27T04:27:29.133Z,0.00
2023-01-27T04:28:43.284Z,0.00
2023-01-27T04:29:29.138Z,0.00
2023-01-27T04:30:29.092Z,0.00
2023-01-27T04:31:29.141Z,0.00
2023-01-27T04:32:29.084Z,0.00
2023-01-27T04:33:29.074Z,0.00
2023-01-27T04:34:29.080Z,0.00
2023-01-27T04:35:38.450Z,0.00
2023-01-27T04:36:29.046Z,0.00
2023-01-27T04:37:29.030Z,0.00
2023-01-27T04:38:29.006Z,0.00
2023-01-27T04:39:29.009Z,0.00
2023-01-27T04:40:29.014Z,0.00
2023-01-27T04:41:28.996Z,0.00
2023-01-27T04:42:28.979Z,0.00
2023-01-27T04:43:28.959Z,0.00
2023-01-27T04:44:28.957Z,0.00
2023-01-27T04:45:28.992Z,0.00
2023-01-27T04:46:28.944Z,0.00
2023-01-27T04:47:36.425Z,0.00
2023-01-27T04:48:28.897Z,0.00
2023-01-27T04:49:28.900Z,0.00
2023-01-27T04:50:28.919Z,0.00
2023-01-27T04:51:28.862Z,0.00
2023-01-27T04:52:28.871Z,0.00
2023-01-27T04:53:28.843Z,0.00
2023-01-27T04:54:28.845Z,0.00
2023-01-27T04:55:28.842Z,0.00
2023-01-27T04:56:28.812Z,0.00
2023-01-27T04:57:28.799Z,0.00
2023-01-27T04:58:28.786Z,0.00
2023-01-27T04:59:28.785Z,0.00
2023-01-27T05:00:28.784Z,0.00
2023-01-27T05:01:28.794Z,0.00
2023-01-27T05:02:28.745Z,0.00
2023-01-27T05:03:28.741Z,0.00
2023-01-27T05:04:28.753Z,0.00
2023-01-27T05:05:28.726Z,0.00
2023-01-27T05:06:28.725Z,0.00
2023-01-27T05:07:29.636Z,0.00
2023-01-27T05:08:28.703Z,0.00
2023-01-27T05:09:28.690Z,0.00
2023-01-27T05:10:28.663Z,0.00
2023-01-27T05:11:28.645Z,0.00
2023-01-27T05:12:28.644Z,0.00
2023-01-27T05:13:28.633Z,0.00
2023-01-27T05:14:28.653Z,0.00
2023-01-27T05:15:28.680Z,0.00
2023-01-27T05:16:28.700Z,0.00
2023-01-27T05:17:28.580Z,0.00
2023-01-27T05:18:28.575Z,0.00
2023-01-27T05:19:28.593Z,0.00
2023-01-27T05:20:28.556Z,0.00
2023-01-27T05:21:28.550Z,0.00
2023-01-27T05:22:28.538Z,0.00
2023-01-27T05:23:28.539Z,0.00
2023-01-27T05:24:28.556Z,0.00
2023-01-27T05:25:28.505Z,0.00
2023-01-27T05:26:28.511Z,0.00
2023-01-27T05:27:28.472Z,0.00
2023-01-27T05:28:29.253Z,0.00
2023-01-27T05:29:28.453Z,0.00
2023-01-27T05:30:28.439Z,0.00
2023-01-27T05:31:28.656Z,0.00
2023-01-27T05:32:28.419Z,0.00
2023-01-27T05:33:28.413Z,0.00
2023-01-27T05:34:28.419Z,0.00
2023-01-27T05:35:28.406Z,0.00
2023-01-27T05:36:28.384Z,0.00
2023-01-27T05:37:28.376Z,0.00
2023-01-27T05:38:28.356Z,0.00
2023-01-27T05:39:28.343Z,0.00
2023-01-27T05:40:28.356Z,0.00
2023-01-27T05:41:28.338Z,0.00
2023-01-27T05:42:28.322Z,0.00
2023-01-27T05:43:28.294Z,0.00
2023-01-27T05:44:28.293Z,0.00
2023-01-27T05:45:28.279Z,0.00
2023-01-27T05:46:28.342Z,0.00
2023-01-27T05:47:28.251Z,0.00
2023-01-27T05:48:28.247Z,0.00
2023-01-27T05:49:28.232Z,0.00
2023-01-27T05:50:28.221Z,0.00
2023-01-27T05:51:28.242Z,0.00
2023-01-27T05:52:28.221Z,0.00
2023-01-27T05:53:28.183Z,0.00
2023-01-27T05:54:28.177Z,0.00
2023-01-27T05:55:28.177Z,0.00
2023-01-27T05:56:28.192Z,0.00
2023-01-27T05:57:28.150Z,0.00
2023-01-27T05:58:28.134Z,0.00
2023-01-27T05:59:28.131Z,0.00
2023-01-27T06:00:28.113Z,0.00
2023-01-27T06:01:28.165Z,0.00
2023-01-27T06:02:28.092Z,0.00
2023-01-27T06:03:28.092Z,0.00
2023-01-27T06:04:28.088Z,0.00
2023-01-27T06:05:28.053Z,0.00
2023-01-27T06:06:28.052Z,0.00
2023-01-27T06:07:28.035Z,0.00
2023-01-27T06:08:28.024Z,0.00
2023-01-27T06:09:28.037Z,0.00
2023-01-27T06:10:28.006Z,0.00
2023-01-27T06:11:27.987Z,0.00
2023-01-27T06:12:27.999Z,0.00
2023-01-27T06:13:27.973Z,0.00
2023-01-27T06:14:27.979Z,0.00
2023-01-27T06:15:27.982Z,0.00
2023-01-27T06:16:27.997Z,0.00
2023-01-27T06:17:27.936Z,0.00
2023-01-27T06:18:27.919Z,0.00
2023-01-27T06:19:27.904Z,0.00
2023-01-27T06:20:27.894Z,0.00
2023-01-27T06:21:27.903Z,0.00
2023-01-27T06:22:27.894Z,0.00
2023-01-27T06:23:27.879Z,0.00
2023-01-27T06:24:27.879Z,0.00
2023-01-27T06:25:27.837Z,0.00
2023-01-27T06:26:27.848Z,0.00
2023-01-27T06:27:27.812Z,0.00
2023-01-27T06:28:29.678Z,0.00
2023-01-27T06:29:27.805Z,0.00
2023-01-27T06:30:27.785Z,0.00
2023-01-27T06:31:27.930Z,0.00
2023-01-27T06:32:27.760Z,0.00
2023-01-27T06:33:27.754Z,0.00
2023-01-27T06:34:27.763Z,0.00
2023-01-27T06:35:27.746Z,0.00
2023-01-27T06:36:27.718Z,0.00
2023-01-27T06:37:27.814Z,0.00
2023-01-27T06:38:27.704Z,0.00
2023-01-27T06:39:27.892Z,0.00
2023-01-27T06:40:27.772Z,0.00
2023-01-27T06:41:28.119Z,0.00
2023-01-27T06:42:27.743Z,0.00
2023-01-27T06:43:27.639Z,0.00
2023-01-27T06:44:27.660Z,0.00
2023-01-27T06:45:27.631Z,0.00
2023-01-27T06:46:27.772Z,0.00
2023-01-27T06:47:27.619Z,4.00
2023-01-27T06:48:35.436Z,4.00
2023-01-27T06:49:27.658Z,0.00
2023-01-27T06:50:27.573Z,4.00
2023-01-27T06:51:27.591Z,4.00
2023-01-27T06:52:27.627Z,4.00
2023-01-27T06:53:27.559Z,8.00
2023-01-27T06:54:27.669Z,4.00
2023-01-27T06:55:27.517Z,4.00
2023-01-27T06:56:27.522Z,4.00
2023-01-27T06:57:27.574Z,8.00
2023-01-27T06:58:27.639Z,12.00
2023-01-27T06:59:27.467Z,12.00
2023-01-27T07:00:27.498Z,16.00
2023-01-27T07:01:27.516Z,20.00
2023-01-27T07:02:27.891Z,20.00
2023-01-27T07:03:27.420Z,24.00
2023-01-27T07:04:27.522Z,28.00
2023-01-27T07:05:27.504Z,32.00
2023-01-27T07:06:27.395Z,32.00
2023-01-27T07:07:27.379Z,36.00
2023-01-27T07:08:27.384Z,44.00
2023-01-27T07:09:27.370Z,44.00
2023-01-27T07:10:27.372Z,52.00
2023-01-27T07:11:27.366Z,56.00
2023-01-27T07:12:27.323Z,64.00
2023-01-27T07:13:27.353Z,68.00
2023-01-27T07:14:27.306Z,76.00
2023-01-27T07:15:27.310Z,84.00
2023-01-27T07:16:27.396Z,88.00
2023-01-27T07:17:27.278Z,100.00
2023-01-27T07:18:27.260Z,108.00
2023-01-27T07:19:27.264Z,112.00
2023-01-27T07:20:27.257Z,120.00
2023-01-27T07:21:27.241Z,132.00
2023-01-27T07:22:27.317Z,148.00
2023-01-27T07:23:27.218Z,160.00
2023-01-27T07:24:27.259Z,168.00
2023-01-27T07:25:27.182Z,168.00
2023-01-27T07:26:27.182Z,168.00
2023-01-27T07:27:27.197Z,180.00
2023-01-27T07:28:27.185Z,192.00
2023-01-27T07:29:27.138Z,200.00
2023-01-27T07:30:27.155Z,204.00
2023-01-27T07:31:27.254Z,200.00
2023-01-27T07:32:28.424Z,216.00
2023-01-27T07:33:27.136Z,236.00
2023-01-27T07:34:27.090Z,248.00
2023-01-27T07:35:27.069Z,256.00
2023-01-27T07:36:27.098Z,276.00
2023-01-27T07:37:27.074Z,272.00
2023-01-27T07:38:27.047Z,280.00
2023-01-27T07:39:27.036Z,280.00
2023-01-27T07:40:27.020Z,276.00
2023-01-27T07:41:27.021Z,268.00
2023-01-27T07:42:26.999Z,276.00
2023-01-27T07:43:26.993Z,308.00
2023-01-27T07:44:26.979Z,316.00
2023-01-27T07:45:27.004Z,324.00
2023-01-27T07:46:27.056Z,344.00
2023-01-27T07:47:26.951Z,356.00
2023-01-27T07:48:26.966Z,348.00
2023-01-27T07:49:27.621Z,364.00
2023-01-27T07:50:26.951Z,380.00
2023-01-27T07:51:26.939Z,380.00
2023-01-27T07:52:26.899Z,364.00
2023-01-27T07:53:26.875Z,352.00
2023-01-27T07:54:26.871Z,364.00
2023-01-27T07:55:27.111Z,388.00
2023-01-27T07:56:26.876Z,420.00
2023-01-27T07:57:26.851Z,408.00
2023-01-27T07:58:26.821Z,444.00
2023-01-27T07:59:26.843Z,468.00
2023-01-27T08:00:26.825Z,448.00
2023-01-27T08:01:26.788Z,452.00
2023-01-27T08:02:26.795Z,492.00
2023-01-27T08:03:26.774Z,536.00
2023-01-27T08:04:26.782Z,540.00
2023-01-27T08:05:26.753Z,508.00
2023-01-27T08:06:26.741Z,476.00
2023-01-27T08:07:26.735Z,476.00
2023-01-27T08:08:26.712Z,524.00
2023-01-27T08:09:26.713Z,528.00
2023-01-27T08:10:26.757Z,516.00
2023-01-27T08:11:26.673Z,512.00
2023-01-27T08:12:26.693Z,544.00
2023-01-27T08:13:26.870Z,548.00
2023-01-27T08:14:26.675Z,576.00
2023-01-27T08:15:26.633Z,628.00
2023-01-27T08:16:26.704Z,640.00
2023-01-27T08:17:26.611Z,648.00
2023-01-27T08:18:26.600Z,668.00
2023-01-27T08:19:26.601Z,724.00
2023-01-27T08:20:26.720Z,824.00
2023-01-27T08:21:26.600Z,868.00
2023-01-27T08:22:26.560Z,896.00
2023-01-27T08:23:26.573Z,948.00
2023-01-27T08:24:26.632Z,976.00
2023-01-27T08:25:26.534Z,988.00
2023-01-27T08:26:26.522Z,976.00
2023-01-27T08:27:27.107Z,952.00
2023-01-27T08:28:26.492Z,992.00
2023-01-27T08:29:26.555Z,964.00
2023-01-27T08:30:26.523Z,904.00
2023-01-27T08:31:26.512Z,916.00
2023-01-27T08:32:26.481Z,876.00
2023-01-27T08:33:26.436Z,836.00
2023-01-27T08:34:26.441Z,860.00
2023-01-27T08:35:26.440Z,824.00
2023-01-27T08:36:26.476Z,752.00
2023-01-27T08:37:27.381Z,760.00
2023-01-27T08:38:26.384Z,732.00
2023-01-27T08:39:26.433Z,668.00
2023-01-27T08:40:26.488Z,668.00
2023-01-27T08:41:26.351Z,640.00
2023-01-27T08:42:26.448Z,624.00
2023-01-27T08:43:26.401Z,588.00
2023-01-27T08:44:26.324Z,576.00
2023-01-27T08:45:26.303Z,572.00
2023-01-27T08:46:26.352Z,552.00
2023-01-27T08:47:26.282Z,556.00
2023-01-27T08:48:26.293Z,572.00
2023-01-27T08:49:33.791Z,620.00
2023-01-27T08:50:26.264Z,680.00
2023-01-27T08:51:26.263Z,736.00
2023-01-27T08:52:26.250Z,712.00
2023-01-27T08:53:26.220Z,712.00
2023-01-27T08:54:26.243Z,700.00
2023-01-27T08:55:26.204Z,668.00
2023-01-27T08:56:26.193Z,684.00
2023-01-27T08:57:26.171Z,628.00
2023-01-27T08:58:26.193Z,624.00
2023-01-27T08:59:26.167Z,668.00
2023-01-27T09:00:26.198Z,724.00
2023-01-27T09:01:26.271Z,764.00
2023-01-27T09:02:26.121Z,784.00
2023-01-27T09:03:26.113Z,784.00
2023-01-27T09:04:26.122Z,828.00
2023-01-27T09:05:26.134Z,816.00
2023-01-27T09:06:26.116Z,792.00
2023-01-27T09:07:26.122Z,856.00
2023-01-27T09:08:26.085Z,876.00
2023-01-27T09:09:26.061Z,860.00
2023-01-27T09:10:26.230Z,888.00
2023-01-27T09:11:26.047Z,912.00
2023-01-27T09:12:26.092Z,948.00
2023-01-27T09:13:26.025Z,988.00
2023-01-27T09:14:26.435Z,1020.00
2023-01-27T09:15:26.191Z,1040.00
2023-01-27T09:16:26.024Z,964.00
2023-01-27T09:17:25.977Z,824.00
2023-01-27T09:18:25.958Z,780.00
2023-01-27T09:19:25.959Z,772.00
2023-01-27T09:20:25.945Z,744.00
2023-01-27T09:21:25.941Z,748.00
2023-01-27T09:22:25.907Z,720.00
2023-01-27T09:23:25.943Z,684.00
2023-01-27T09:24:25.978Z,744.00
2023-01-27T09:25:25.891Z,776.00
2023-01-27T09:26:25.879Z,996.00
2023-01-27T09:27:38.146Z,924.00
2023-01-27T09:28:26.867Z,808.00
2023-01-27T09:29:25.827Z,716.00
2023-01-27T09:30:25.827Z,772.00
2023-01-27T09:31:25.897Z,884.00
2023-01-27T09:32:25.795Z,772.00
2023-01-27T09:33:26.634Z,728.00
2023-01-27T09:34:25.818Z,900.00
2023-01-27T09:35:26.817Z,912.00
2023-01-27T09:36:25.779Z,852.00
2023-01-27T09:37:27.842Z,876.00
2023-01-27T09:38:25.729Z,876.00
2023-01-27T09:39:26.645Z,940.00
2023-01-27T09:40:25.731Z,1060.00
2023-01-27T09:41:25.802Z,1272.00
2023-01-27T09:42:25.731Z,1260.00
2023-01-27T09:43:25.690Z,1272.00
2023-01-27T09:44:25.851Z,1268.00
2023-01-27T09:45:25.672Z,1348.00
2023-01-27T09:46:25.823Z,1240.00
2023-01-27T09:47:25.718Z,1236.00
2023-01-27T09:48:25.635Z,1216.00
2023-01-27T09:49:25.642Z,1216.00
2023-01-27T09:50:25.625Z,1256.00
2023-01-27T09:51:25.654Z,1240.00
2023-01-27T09:52:30.625Z,1252.00
2023-01-27T09:53:25.598Z,1196.00
2023-01-27T09:54:25.562Z,1392.00
2023-01-27T09:55:25.551Z,1848.00
2023-01-27T09:56:26.157Z,2260.00
2023-01-27T09:57:25.549Z,2336.00
2023-01-27T09:58:25.516Z,3028.00
2023-01-27T09:59:25.515Z,2732.00
2023-01-27T10:00:25.489Z,2424.00
2023-01-27T10:01:25.551Z,2256.00
2023-01-27T10:02:25.465Z,2096.00
2023-01-27T10:03:25.485Z,1864.00
2023-01-27T10:04:25.471Z,2456.00
2023-01-27T10:05:25.563Z,2748.00
2023-01-27T10:06:25.457Z,2348.00
2023-01-27T10:07:25.419Z,2492.00
2023-01-27T10:08:25.420Z,2860.00
2023-01-27T10:09:25.423Z,2984.00
2023-01-27T10:10:25.445Z,2604.00
2023-01-27T10:11:25.393Z,2408.00
2023-01-27T10:12:25.388Z,2200.00
2023-01-27T10:13:25.392Z,2292.00
2023-01-27T10:14:25.406Z,2844.00
2023-01-27T10:15:25.333Z,3892.00
2023-01-27T10:16:25.370Z,4372.00
2023-01-27T10:17:25.318Z,5156.00
2023-01-27T10:18:25.305Z,6676.00
2023-01-27T10:19:25.284Z,10388.00
2023-01-27T10:20:25.293Z,23488.00
2023-01-27T10:21:25.276Z,18208.00
2023-01-27T10:22:25.244Z,10116.00
2023-01-27T10:23:25.332Z,9572.00
2023-01-27T10:24:25.303Z,11816.00
2023-01-27T10:25:25.379Z,26944.00
2023-01-27T10:26:25.228Z,74688.00
2023-01-27T10:27:25.266Z,19840.00
2023-01-27T10:28:25.224Z,26400.00
2023-01-27T10:29:25.180Z,14008.00
2023-01-27T10:30:25.819Z,23392.00
2023-01-27T10:31:25.165Z,15372.00
2023-01-27T10:32:25.149Z,9936.00
2023-01-27T10:33:26.800Z,7700.00
2023-01-27T10:34:25.130Z,7304.00
2023-01-27T10:35:25.167Z,7076.00
2023-01-27T10:36:25.298Z,6268.00
2023-01-27T10:37:25.102Z,5692.00
2023-01-27T10:38:25.072Z,5892.00
2023-01-27T10:39:25.078Z,6092.00
2023-01-27T10:40:25.062Z,7268.00
2023-01-27T10:41:25.043Z,10176.00
2023-01-27T10:42:25.024Z,7552.00
2023-01-27T10:43:25.038Z,5452.00
2023-01-27T10:44:25.025Z,4884.00
2023-01-27T10:45:25.050Z,4660.00
2023-01-27T10:46:25.051Z,4900.00
2023-01-27T10:47:24.983Z,5188.00
2023-01-27T10:48:24.977Z,4712.00
2023-01-27T10:49:24.949Z,5448.00
2023-01-27T10:50:32.457Z,6068.00
2023-01-27T10:51:24.942Z,6328.00
2023-01-27T10:52:24.915Z,5896.00
2023-01-27T10:53:24.915Z,5984.00
2023-01-27T10:54:24.890Z,8384.00
2023-01-27T10:55:24.896Z,7220.00
2023-01-27T10:56:24.870Z,6532.00
2023-01-27T10:57:24.869Z,6308.00
2023-01-27T10:58:24.853Z,5424.00
2023-01-27T10:59:24.843Z,4668.00
2023-01-27T11:00:51.878Z,4556.00
2023-01-27T11:01:26.388Z,4788.00
2023-01-27T11:02:24.818Z,5048.00
2023-01-27T11:03:24.795Z,4916.00
2023-01-27T11:04:24.832Z,4308.00
2023-01-27T11:05:24.790Z,4152.00
2023-01-27T11:06:24.806Z,4260.00
2023-01-27T11:07:24.835Z,4624.00
2023-01-27T11:08:24.749Z,4536.00
2023-01-27T11:09:24.754Z,4164.00
2023-01-27T11:10:24.804Z,3828.00
2023-01-27T11:11:24.720Z,3540.00
2023-01-27T11:12:24.710Z,3728.00
2023-01-27T11:13:24.687Z,3260.00
2023-01-27T11:14:25.027Z,3216.00
2023-01-27T11:15:25.820Z,3264.00
2023-01-27T11:16:24.848Z,3340.00
2023-01-27T11:17:24.809Z,3292.00
2023-01-27T11:18:24.755Z,3536.00
2023-01-27T11:19:24.809Z,3060.00
2023-01-27T11:20:24.641Z,2596.00
2023-01-27T11:21:24.644Z,2568.00
2023-01-27T11:22:24.590Z,2468.00
2023-01-27T11:23:24.592Z,2540.00
2023-01-27T11:24:24.597Z,2628.00
2023-01-27T11:25:24.592Z,2900.00
2023-01-27T11:26:24.637Z,3004.00
2023-01-27T11:27:24.588Z,2788.00
2023-01-27T11:28:24.548Z,2520.00
2023-01-27T11:29:24.770Z,2296.00
2023-01-27T11:30:24.780Z,2188.00
2023-01-27T11:31:24.847Z,2184.00
2023-01-27T11:32:24.750Z,2244.00
2023-01-27T11:33:24.591Z,2204.00
2023-01-27T11:34:24.492Z,2144.00
2023-01-27T11:35:24.453Z,2096.00
2023-01-27T11:36:24.488Z,2096.00
2023-01-27T11:37:24.454Z,2172.00
2023-01-27T11:38:24.454Z,2172.00
2023-01-27T11:39:24.426Z,2248.00
2023-01-27T11:40:24.386Z,2140.00
2023-01-27T11:41:24.398Z,2044.00
2023-01-27T11:42:24.373Z,2096.00
2023-01-27T11:43:24.360Z,2116.00
2023-01-27T11:44:24.632Z,2152.00
2023-01-27T11:45:24.345Z,2156.00
2023-01-27T11:46:24.378Z,2100.00
2023-01-27T11:47:24.348Z,2156.00
2023-01-27T11:48:24.332Z,2216.00
2023-01-27T11:49:24.323Z,2324.00
2023-01-27T11:50:24.290Z,2400.00
2023-01-27T11:51:24.294Z,2592.00
2023-01-27T11:52:24.274Z,2768.00
2023-01-27T11:53:24.310Z,2844.00
2023-01-27T11:54:24.281Z,2824.00
2023-01-27T11:55:24.255Z,2960.00
2023-01-27T11:56:24.227Z,3152.00
2023-01-27T11:57:24.218Z,3440.00
2023-01-27T11:58:24.241Z,3340.00
2023-01-27T11:59:24.197Z,3308.00
2023-01-27T12:00:24.184Z,3368.00
2023-01-27T12:01:24.183Z,3056.00
2023-01-27T12:02:24.208Z,3124.00
2023-01-27T12:03:24.224Z,3748.00
2023-01-27T12:04:24.320Z,4528.00
2023-01-27T12:05:24.117Z,4684.00
2023-01-27T12:06:24.115Z,4560.00
2023-01-27T12:07:24.451Z,3908.00
2023-01-27T12:08:24.166Z,3144.00
2023-01-27T12:09:24.076Z,2676.00
2023-01-27T12:10:24.057Z,2448.00
2023-01-27T12:11:24.050Z,2292.00
2023-01-27T12:12:24.067Z,2144.00
2023-01-27T12:13:24.038Z,2184.00
2023-01-27T12:14:24.054Z,2276.00
2023-01-27T12:15:24.034Z,2704.00
2023-01-27T12:16:24.066Z,2760.00
2023-01-27T12:17:24.011Z,2652.00
2023-01-27T12:18:23.973Z,2368.00
2023-01-27T12:19:23.971Z,2276.00
2023-01-27T12:20:24.725Z,2644.00
2023-01-27T12:21:23.940Z,2972.00
2023-01-27T12:22:23.926Z,3160.00
2023-01-27T12:23:23.936Z,4008.00
2023-01-27T12:24:24.023Z,6092.00
2023-01-27T12:25:23.901Z,5700.00
2023-01-27T12:26:23.887Z,4584.00
2023-01-27T12:27:23.872Z,4656.00
2023-01-27T12:28:23.869Z,5292.00
2023-01-27T12:29:23.848Z,6004.00
2023-01-27T12:30:23.838Z,4508.00
2023-01-27T12:31:23.981Z,3672.00
2023-01-27T12:32:23.810Z,3900.00
2023-01-27T12:33:23.815Z,4060.00
2023-01-27T12:34:23.793Z,3828.00
2023-01-27T12:35:23.782Z,3588.00
2023-01-27T12:36:23.820Z,3980.00
2023-01-27T12:37:23.761Z,3644.00
2023-01-27T12:38:23.760Z,2892.00
2023-01-27T12:39:23.738Z,2520.00
2023-01-27T12:40:23.726Z,2248.00
2023-01-27T12:41:23.712Z,2064.00
2023-01-27T12:42:23.703Z,2032.00
2023-01-27T12:43:23.707Z,1996.00
2023-01-27T12:44:23.675Z,1992.00
2023-01-27T12:45:23.700Z,2176.00
2023-01-27T12:46:23.706Z,2404.00
2023-01-27T12:47:23.648Z,2592.00
2023-01-27T12:48:23.707Z,3228.00
2023-01-27T12:49:23.627Z,3776.00